sensor_id;sensor_type;location;lat;lon;timestamp;pressure;altitude;pressure_sealevel;temperature
79488;BMP180;68949;53.176;18.088;2023-07-31T00:01:38;99806.80;;;
79488;BMP180;68949;53.176;18.088;2023-07-31T00:04:05;99809.60;;;
79488;BMP180;68949;53.176;18.088;2023-07-31T00:06:31;99817.60;;;
79488;BMP180;68949;53.176;18.088;2023-07-31T00:08:58;99822.20;;;
79488;BMP180;68949;53.176;18.088;2023-07-31T00:11:25;99822.20;;;
79488;BMP180;68949;53.176;18.088;2023-07-31T00:13:53;99823.20;;;
79488;BMP180;68949;53.176;18.088;2023-07-31T00:16:20;99816.80;;;
79488;BMP180;68949;53.176;18.088;2023-07-31T00:18:47;99821.40;;;
79488;BMP180;68949;53.176;18.088;2023-07-31T00:21:13;99816.80;;;
79488;BMP180;68949;53.176;18.088;2023-07-31T00:23:40;99817.20;;;
79488;BMP180;68949;53.176;18.088;2023-07-31T00:26:07;99818.80;;;
79488;BMP180;68949;53.176;18.088;2023-07-31T00:28:33;99808.40;;;
79488;BMP180;68949;53.176;18.088;2023-07-31T00:31:00;99816.40;;;
79488;BMP180;68949;53.176;18.088;2023-07-31T00:33:30;99811.80;;;
79488;BMP180;68949;53.176;18.088;2023-07-31T00:35:57;99808.20;;;
79488;BMP180;68949;53.176;18.088;2023-07-31T00:38:26;99805.40;;;
79488;BMP180;68949;53.176;18.088;2023-07-31T00:40:53;99814.80;;;
79488;BMP180;68949;53.176;18.088;2023-07-31T00:43:20;99817.80;;;
79488;BMP180;68949;53.176;18.088;2023-07-31T00:45:46;99826.20;;;
79488;BMP180;68949;53.176;18.088;2023-07-31T00:48:13;99822.80;;;
79488;BMP180;68949;53.176;18.088;2023-07-31T00:50:41;99830.60;;;
79488;BMP180;68949;53.176;18.088;2023-07-31T00:53:07;99831.60;;;
79488;BMP180;68949;53.176;18.088;2023-07-31T00:55:34;99833.20;;;
79488;BMP180;68949;53.176;18.088;2023-07-31T00:58:01;99832.80;;;
79488;BMP180;68949;53.176;18.088;2023-07-31T01:00:27;99836.40;;;
79488;BMP180;68949;53.176;18.088;2023-07-31T01:02:54;99841.00;;;
79488;BMP180;68949;53.176;18.088;2023-07-31T01:05:39;99847.00;;;
79488;BMP180;68949;53.176;18.088;2023-07-31T01:08:26;99849.80;;;
79488;BMP180;68949;53.176;18.088;2023-07-31T01:11:07;99842.20;;;
79488;BMP180;68949;53.176;18.088;2023-07-31T01:13:36;99852.00;;;
79488;BMP180;68949;53.176;18.088;2023-07-31T01:16:03;99854.60;;;
79488;BMP180;68949;53.176;18.088;2023-07-31T01:18:29;99852.00;;;
79488;BMP180;68949;53.176;18.088;2023-07-31T01:24:20;99851.00;;;
79488;BMP180;68949;53.176;18.088;2023-07-31T01:27:04;99849.40;;;
79488;BMP180;68949;53.176;18.088;2023-07-31T01:29:56;99855.40;;;
79488;BMP180;68949;53.176;18.088;2023-07-31T01:32:29;99855.20;;;
79488;BMP180;68949;53.176;18.088;2023-07-31T01:34:58;99855.00;;;
79488;BMP180;68949;53.176;18.088;2023-07-31T01:37:29;99856.40;;;
79488;BMP180;68949;53.176;18.088;2023-07-31T01:39:56;99852.40;;;
79488;BMP180;68949;53.176;18.088;2023-07-31T01:42:23;99848.60;;;
79488;BMP180;68949;53.176;18.088;2023-07-31T01:44:50;99845.00;;;
79488;BMP180;68949;53.176;18.088;2023-07-31T01:47:17;99848.00;;;
79488;BMP180;68949;53.176;18.088;2023-07-31T01:49:44;99840.80;;;
79488;BMP180;68949;53.176;18.088;2023-07-31T01:52:10;99837.80;;;
79488;BMP180;68949;53.176;18.088;2023-07-31T01:54:37;99837.00;;;
79488;BMP180;68949;53.176;18.088;2023-07-31T01:57:04;99844.80;;;
79488;BMP180;68949;53.176;18.088;2023-07-31T01:59:30;99843.00;;;
79488;BMP180;68949;53.176;18.088;2023-07-31T02:01:57;99848.20;;;
79488;BMP180;68949;53.176;18.088;2023-07-31T02:04:24;99842.40;;;
79488;BMP180;68949;53.176;18.088;2023-07-31T02:06:50;99840.20;;;
79488;BMP180;68949;53.176;18.088;2023-07-31T02:09:17;99838.60;;;
79488;BMP180;68949;53.176;18.088;2023-07-31T02:11:44;99844.80;;;
79488;BMP180;68949;53.176;18.088;2023-07-31T02:14:10;99845.60;;;
79488;BMP180;68949;53.176;18.088;2023-07-31T02:16:37;99847.40;;;
79488;BMP180;68949;53.176;18.088;2023-07-31T02:19:03;99843.00;;;
79488;BMP180;68949;53.176;18.088;2023-07-31T02:21:30;99847.60;;;
79488;BMP180;68949;53.176;18.088;2023-07-31T02:23:57;99848.80;;;
79488;BMP180;68949;53.176;18.088;2023-07-31T02:26:23;99850.80;;;
79488;BMP180;68949;53.176;18.088;2023-07-31T02:28:50;99847.60;;;
79488;BMP180;68949;53.176;18.088;2023-07-31T02:31:17;99846.20;;;
79488;BMP180;68949;53.176;18.088;2023-07-31T02:33:43;99849.60;;;
79488;BMP180;68949;53.176;18.088;2023-07-31T02:36:10;99844.80;;;
79488;BMP180;68949;53.176;18.088;2023-07-31T02:38:37;99850.80;;;
79488;BMP180;68949;53.176;18.088;2023-07-31T02:41:04;99850.60;;;
79488;BMP180;68949;53.176;18.088;2023-07-31T02:43:30;99858.80;;;
79488;BMP180;68949;53.176;18.088;2023-07-31T02:45:57;99860.20;;;
79488;BMP180;68949;53.176;18.088;2023-07-31T02:48:24;99860.00;;;
79488;BMP180;68949;53.176;18.088;2023-07-31T02:50:51;99863.40;;;
79488;BMP180;68949;53.176;18.088;2023-07-31T02:53:17;99860.60;;;
79488;BMP180;68949;53.176;18.088;2023-07-31T02:55:44;99856.60;;;
79488;BMP180;68949;53.176;18.088;2023-07-31T02:58:10;99855.40;;;
79488;BMP180;68949;53.176;18.088;2023-07-31T03:00:42;99859.60;;;
79488;BMP180;68949;53.176;18.088;2023-07-31T03:03:09;99860.40;;;
79488;BMP180;68949;53.176;18.088;2023-07-31T03:05:37;99855.40;;;
79488;BMP180;68949;53.176;18.088;2023-07-31T03:08:04;99853.20;;;
79488;BMP180;68949;53.176;18.088;2023-07-31T03:10:30;99853.80;;;
79488;BMP180;68949;53.176;18.088;2023-07-31T03:12:57;99852.20;;;
79488;BMP180;68949;53.176;18.088;2023-07-31T03:15:24;99853.20;;;
79488;BMP180;68949;53.176;18.088;2023-07-31T03:17:50;99851.20;;;
79488;BMP180;68949;53.176;18.088;2023-07-31T03:20:17;99851.40;;;
79488;BMP180;68949;53.176;18.088;2023-07-31T03:22:44;99863.20;;;
79488;BMP180;68949;53.176;18.088;2023-07-31T03:25:11;99867.40;;;
79488;BMP180;68949;53.176;18.088;2023-07-31T03:27:39;99866.60;;;
79488;BMP180;68949;53.176;18.088;2023-07-31T03:30:07;99871.80;;;
79488;BMP180;68949;53.176;18.088;2023-07-31T03:32:33;99875.00;;;
79488;BMP180;68949;53.176;18.088;2023-07-31T03:35:00;99870.60;;;
79488;BMP180;68949;53.176;18.088;2023-07-31T03:37:27;99872.00;;;
79488;BMP180;68949;53.176;18.088;2023-07-31T03:39:53;99868.60;;;
79488;BMP180;68949;53.176;18.088;2023-07-31T03:42:20;99869.80;;;
79488;BMP180;68949;53.176;18.088;2023-07-31T03:44:47;99863.20;;;
79488;BMP180;68949;53.176;18.088;2023-07-31T03:47:13;99856.60;;;
79488;BMP180;68949;53.176;18.088;2023-07-31T03:49:40;99851.20;;;
79488;BMP180;68949;53.176;18.088;2023-07-31T03:52:07;99858.60;;;
79488;BMP180;68949;53.176;18.088;2023-07-31T03:54:34;99866.40;;;
79488;BMP180;68949;53.176;18.088;2023-07-31T03:57:00;99868.20;;;
79488;BMP180;68949;53.176;18.088;2023-07-31T03:59:27;99869.80;;;
79488;BMP180;68949;53.176;18.088;2023-07-31T04:01:54;99867.60;;;
79488;BMP180;68949;53.176;18.088;2023-07-31T04:04:20;99864.80;;;
79488;BMP180;68949;53.176;18.088;2023-07-31T04:06:47;99855.80;;;
79488;BMP180;68949;53.176;18.088;2023-07-31T04:09:13;99846.40;;;
79488;BMP180;68949;53.176;18.088;2023-07-31T04:11:40;99840.00;;;
79488;BMP180;68949;53.176;18.088;2023-07-31T04:14:07;99825.00;;;
79488;BMP180;68949;53.176;18.088;2023-07-31T04:16:33;99839.00;;;
79488;BMP180;68949;53.176;18.088;2023-07-31T04:19:00;99828.20;;;
79488;BMP180;68949;53.176;18.088;2023-07-31T04:21:29;99837.40;;;
79488;BMP180;68949;53.176;18.088;2023-07-31T04:23:56;99836.20;;;
79488;BMP180;68949;53.176;18.088;2023-07-31T04:26:22;99836.60;;;
79488;BMP180;68949;53.176;18.088;2023-07-31T04:28:49;99832.00;;;
79488;BMP180;68949;53.176;18.088;2023-07-31T04:31:15;99831.40;;;
79488;BMP180;68949;53.176;18.088;2023-07-31T04:33:42;99831.80;;;
79488;BMP180;68949;53.176;18.088;2023-07-31T04:36:09;99831.20;;;
79488;BMP180;68949;53.176;18.088;2023-07-31T04:38:35;99827.40;;;
79488;BMP180;68949;53.176;18.088;2023-07-31T04:41:02;99824.00;;;
79488;BMP180;68949;53.176;18.088;2023-07-31T04:43:30;99831.40;;;
79488;BMP180;68949;53.176;18.088;2023-07-31T04:45:56;99833.20;;;
79488;BMP180;68949;53.176;18.088;2023-07-31T04:48:24;99826.60;;;
79488;BMP180;68949;53.176;18.088;2023-07-31T04:50:51;99828.60;;;
79488;BMP180;68949;53.176;18.088;2023-07-31T04:53:17;99822.80;;;
79488;BMP180;68949;53.176;18.088;2023-07-31T04:55:44;99826.80;;;
79488;BMP180;68949;53.176;18.088;2023-07-31T04:58:11;99825.80;;;
79488;BMP180;68949;53.176;18.088;2023-07-31T05:00:37;99826.80;;;
79488;BMP180;68949;53.176;18.088;2023-07-31T05:03:04;99815.00;;;
79488;BMP180;68949;53.176;18.088;2023-07-31T05:05:31;99817.80;;;
79488;BMP180;68949;53.176;18.088;2023-07-31T05:07:58;99813.60;;;
79488;BMP180;68949;53.176;18.088;2023-07-31T05:10:24;99817.80;;;
79488;BMP180;68949;53.176;18.088;2023-07-31T05:12:51;99804.20;;;
79488;BMP180;68949;53.176;18.088;2023-07-31T05:15:18;99816.20;;;
79488;BMP180;68949;53.176;18.088;2023-07-31T05:17:44;99810.80;;;
79488;BMP180;68949;53.176;18.088;2023-07-31T05:20:11;99813.20;;;
79488;BMP180;68949;53.176;18.088;2023-07-31T05:22:38;99817.40;;;
79488;BMP180;68949;53.176;18.088;2023-07-31T05:25:05;99813.60;;;
79488;BMP180;68949;53.176;18.088;2023-07-31T05:27:32;99810.20;;;
79488;BMP180;68949;53.176;18.088;2023-07-31T05:29:59;99812.60;;;
79488;BMP180;68949;53.176;18.088;2023-07-31T05:32:25;99808.80;;;
79488;BMP180;68949;53.176;18.088;2023-07-31T05:34:52;99807.20;;;
79488;BMP180;68949;53.176;18.088;2023-07-31T05:37:20;99796.00;;;
79488;BMP180;68949;53.176;18.088;2023-07-31T05:39:47;99785.60;;;
79488;BMP180;68949;53.176;18.088;2023-07-31T05:42:13;99786.40;;;
79488;BMP180;68949;53.176;18.088;2023-07-31T05:44:40;99781.20;;;
79488;BMP180;68949;53.176;18.088;2023-07-31T05:47:07;99770.40;;;
79488;BMP180;68949;53.176;18.088;2023-07-31T05:49:34;99779.40;;;
79488;BMP180;68949;53.176;18.088;2023-07-31T05:52:00;99770.20;;;
79488;BMP180;68949;53.176;18.088;2023-07-31T05:54:27;99767.00;;;
79488;BMP180;68949;53.176;18.088;2023-07-31T05:56:54;99764.40;;;
79488;BMP180;68949;53.176;18.088;2023-07-31T05:59:20;99775.00;;;
79488;BMP180;68949;53.176;18.088;2023-07-31T06:01:47;99765.20;;;
79488;BMP180;68949;53.176;18.088;2023-07-31T06:04:14;99763.40;;;
79488;BMP180;68949;53.176;18.088;2023-07-31T06:06:40;99767.40;;;
79488;BMP180;68949;53.176;18.088;2023-07-31T06:09:07;99777.00;;;
79488;BMP180;68949;53.176;18.088;2023-07-31T06:11:33;99775.80;;;
79488;BMP180;68949;53.176;18.088;2023-07-31T06:14:00;99777.80;;;
79488;BMP180;68949;53.176;18.088;2023-07-31T06:16:27;99768.80;;;
79488;BMP180;68949;53.176;18.088;2023-07-31T06:18:53;99760.20;;;
79488;BMP180;68949;53.176;18.088;2023-07-31T06:21:20;99764.40;;;
79488;BMP180;68949;53.176;18.088;2023-07-31T06:23:47;99766.60;;;
79488;BMP180;68949;53.176;18.088;2023-07-31T06:26:13;99770.20;;;
79488;BMP180;68949;53.176;18.088;2023-07-31T06:28:41;99771.40;;;
79488;BMP180;68949;53.176;18.088;2023-07-31T06:31:08;99775.00;;;
79488;BMP180;68949;53.176;18.088;2023-07-31T06:33:35;99768.60;;;
79488;BMP180;68949;53.176;18.088;2023-07-31T06:36:02;99766.80;;;
79488;BMP180;68949;53.176;18.088;2023-07-31T06:38:28;99770.40;;;
79488;BMP180;68949;53.176;18.088;2023-07-31T06:40:55;99760.20;;;
79488;BMP180;68949;53.176;18.088;2023-07-31T06:43:22;99765.20;;;
79488;BMP180;68949;53.176;18.088;2023-07-31T06:45:48;99765.40;;;
79488;BMP180;68949;53.176;18.088;2023-07-31T06:48:17;99767.20;;;
79488;BMP180;68949;53.176;18.088;2023-07-31T06:50:44;99766.40;;;
79488;BMP180;68949;53.176;18.088;2023-07-31T06:53:11;99768.40;;;
79488;BMP180;68949;53.176;18.088;2023-07-31T06:55:37;99768.80;;;
79488;BMP180;68949;53.176;18.088;2023-07-31T06:58:04;99774.60;;;
79488;BMP180;68949;53.176;18.088;2023-07-31T07:00:31;99777.20;;;
79488;BMP180;68949;53.176;18.088;2023-07-31T07:02:58;99771.40;;;
79488;BMP180;68949;53.176;18.088;2023-07-31T07:05:25;99776.00;;;
79488;BMP180;68949;53.176;18.088;2023-07-31T07:07:52;99764.80;;;
79488;BMP180;68949;53.176;18.088;2023-07-31T07:10:19;99771.00;;;
79488;BMP180;68949;53.176;18.088;2023-07-31T07:12:46;99768.40;;;
79488;BMP180;68949;53.176;18.088;2023-07-31T07:15:13;99757.20;;;
79488;BMP180;68949;53.176;18.088;2023-07-31T07:17:39;99766.40;;;
79488;BMP180;68949;53.176;18.088;2023-07-31T07:20:08;99768.00;;;
79488;BMP180;68949;53.176;18.088;2023-07-31T07:22:34;99765.60;;;
79488;BMP180;68949;53.176;18.088;2023-07-31T07:25:03;99746.80;;;
79488;BMP180;68949;53.176;18.088;2023-07-31T07:27:30;99759.60;;;
79488;BMP180;68949;53.176;18.088;2023-07-31T07:29:57;99766.00;;;
79488;BMP180;68949;53.176;18.088;2023-07-31T07:32:23;99760.80;;;
79488;BMP180;68949;53.176;18.088;2023-07-31T07:34:50;99764.00;;;
79488;BMP180;68949;53.176;18.088;2023-07-31T07:37:17;99765.00;;;
79488;BMP180;68949;53.176;18.088;2023-07-31T07:39:44;99776.80;;;
79488;BMP180;68949;53.176;18.088;2023-07-31T07:42:11;99767.80;;;
79488;BMP180;68949;53.176;18.088;2023-07-31T07:44:38;99765.60;;;
79488;BMP180;68949;53.176;18.088;2023-07-31T07:47:05;99765.20;;;
79488;BMP180;68949;53.176;18.088;2023-07-31T07:49:35;99752.60;;;
79488;BMP180;68949;53.176;18.088;2023-07-31T07:52:03;99752.20;;;
79488;BMP180;68949;53.176;18.088;2023-07-31T07:54:30;99753.00;;;
79488;BMP180;68949;53.176;18.088;2023-07-31T07:56:58;99753.40;;;
79488;BMP180;68949;53.176;18.088;2023-07-31T07:59:24;99758.40;;;
79488;BMP180;68949;53.176;18.088;2023-07-31T08:01:51;99766.20;;;
79488;BMP180;68949;53.176;18.088;2023-07-31T08:04:18;99766.20;;;
79488;BMP180;68949;53.176;18.088;2023-07-31T08:06:45;99767.80;;;
79488;BMP180;68949;53.176;18.088;2023-07-31T08:09:11;99765.20;;;
79488;BMP180;68949;53.176;18.088;2023-07-31T08:11:38;99765.00;;;
79488;BMP180;68949;53.176;18.088;2023-07-31T08:14:05;99757.00;;;
79488;BMP180;68949;53.176;18.088;2023-07-31T08:16:32;99757.80;;;
79488;BMP180;68949;53.176;18.088;2023-07-31T08:18:58;99757.00;;;
79488;BMP180;68949;53.176;18.088;2023-07-31T08:21:25;99760.00;;;
79488;BMP180;68949;53.176;18.088;2023-07-31T08:23:52;99758.80;;;
79488;BMP180;68949;53.176;18.088;2023-07-31T08:26:20;99764.60;;;
79488;BMP180;68949;53.176;18.088;2023-07-31T08:28:47;99766.80;;;
79488;BMP180;68949;53.176;18.088;2023-07-31T08:31:14;99772.40;;;
79488;BMP180;68949;53.176;18.088;2023-07-31T08:33:40;99761.80;;;
79488;BMP180;68949;53.176;18.088;2023-07-31T08:36:08;99744.80;;;
79488;BMP180;68949;53.176;18.088;2023-07-31T08:38:34;99744.60;;;
79488;BMP180;68949;53.176;18.088;2023-07-31T08:41:04;99735.00;;;
79488;BMP180;68949;53.176;18.088;2023-07-31T08:43:32;99751.60;;;
79488;BMP180;68949;53.176;18.088;2023-07-31T08:46:01;99745.80;;;
79488;BMP180;68949;53.176;18.088;2023-07-31T08:48:31;99743.40;;;
79488;BMP180;68949;53.176;18.088;2023-07-31T08:50:58;99731.40;;;
79488;BMP180;68949;53.176;18.088;2023-07-31T08:53:25;99741.80;;;
79488;BMP180;68949;53.176;18.088;2023-07-31T08:55:53;99724.00;;;
79488;BMP180;68949;53.176;18.088;2023-07-31T08:58:22;99722.00;;;
79488;BMP180;68949;53.176;18.088;2023-07-31T09:00:51;99722.60;;;
79488;BMP180;68949;53.176;18.088;2023-07-31T09:03:18;99729.20;;;
79488;BMP180;68949;53.176;18.088;2023-07-31T09:05:47;99731.00;;;
79488;BMP180;68949;53.176;18.088;2023-07-31T09:08:18;99728.40;;;
79488;BMP180;68949;53.176;18.088;2023-07-31T09:10:47;99723.60;;;
79488;BMP180;68949;53.176;18.088;2023-07-31T09:13:14;99717.60;;;
79488;BMP180;68949;53.176;18.088;2023-07-31T09:15:45;99719.00;;;
79488;BMP180;68949;53.176;18.088;2023-07-31T09:18:12;99726.60;;;
79488;BMP180;68949;53.176;18.088;2023-07-31T09:20:40;99721.00;;;
79488;BMP180;68949;53.176;18.088;2023-07-31T09:23:13;99720.80;;;
79488;BMP180;68949;53.176;18.088;2023-07-31T09:25:44;99719.20;;;
79488;BMP180;68949;53.176;18.088;2023-07-31T09:28:11;99708.80;;;
79488;BMP180;68949;53.176;18.088;2023-07-31T09:30:50;99713.80;;;
79488;BMP180;68949;53.176;18.088;2023-07-31T09:33:19;99719.20;;;
79488;BMP180;68949;53.176;18.088;2023-07-31T09:35:47;99717.20;;;
79488;BMP180;68949;53.176;18.088;2023-07-31T09:38:17;99713.60;;;
79488;BMP180;68949;53.176;18.088;2023-07-31T09:40:49;99714.80;;;
79488;BMP180;68949;53.176;18.088;2023-07-31T09:43:20;99709.40;;;
79488;BMP180;68949;53.176;18.088;2023-07-31T09:45:48;99717.20;;;
79488;BMP180;68949;53.176;18.088;2023-07-31T09:48:20;99717.40;;;
79488;BMP180;68949;53.176;18.088;2023-07-31T09:50:49;99719.00;;;
79488;BMP180;68949;53.176;18.088;2023-07-31T09:53:16;99712.60;;;
79488;BMP180;68949;53.176;18.088;2023-07-31T09:55:51;99707.60;;;
79488;BMP180;68949;53.176;18.088;2023-07-31T09:58:19;99705.60;;;
79488;BMP180;68949;53.176;18.088;2023-07-31T10:00:46;99694.20;;;
79488;BMP180;68949;53.176;18.088;2023-07-31T10:03:15;99701.20;;;
79488;BMP180;68949;53.176;18.088;2023-07-31T10:05:50;99708.40;;;
79488;BMP180;68949;53.176;18.088;2023-07-31T10:08:27;99703.00;;;
79488;BMP180;68949;53.176;18.088;2023-07-31T10:11:04;99717.00;;;
79488;BMP180;68949;53.176;18.088;2023-07-31T10:13:34;99766.40;;;
79488;BMP180;68949;53.176;18.088;2023-07-31T10:16:01;99791.80;;;
79488;BMP180;68949;53.176;18.088;2023-07-31T10:18:30;99811.40;;;
79488;BMP180;68949;53.176;18.088;2023-07-31T10:21:00;99792.60;;;
79488;BMP180;68949;53.176;18.088;2023-07-31T10:23:27;99790.20;;;
79488;BMP180;68949;53.176;18.088;2023-07-31T10:25:57;99789.20;;;
79488;BMP180;68949;53.176;18.088;2023-07-31T10:28:26;99797.80;;;
79488;BMP180;68949;53.176;18.088;2023-07-31T10:30:54;99794.00;;;
79488;BMP180;68949;53.176;18.088;2023-07-31T10:33:21;99792.00;;;
79488;BMP180;68949;53.176;18.088;2023-07-31T10:35:49;99784.80;;;
79488;BMP180;68949;53.176;18.088;2023-07-31T10:38:15;99770.60;;;
79488;BMP180;68949;53.176;18.088;2023-07-31T10:40:42;99778.60;;;
79488;BMP180;68949;53.176;18.088;2023-07-31T10:43:24;99772.60;;;
79488;BMP180;68949;53.176;18.088;2023-07-31T10:45:53;99766.80;;;
79488;BMP180;68949;53.176;18.088;2023-07-31T10:48:20;99760.20;;;
79488;BMP180;68949;53.176;18.088;2023-07-31T10:50:50;99743.80;;;
79488;BMP180;68949;53.176;18.088;2023-07-31T10:53:32;99737.40;;;
79488;BMP180;68949;53.176;18.088;2023-07-31T10:56:07;99735.60;;;
79488;BMP180;68949;53.176;18.088;2023-07-31T10:58:36;99724.60;;;
79488;BMP180;68949;53.176;18.088;2023-07-31T11:01:05;99722.00;;;
79488;BMP180;68949;53.176;18.088;2023-07-31T11:03:46;99719.00;;;
79488;BMP180;68949;53.176;18.088;2023-07-31T11:06:15;99718.00;;;
79488;BMP180;68949;53.176;18.088;2023-07-31T11:08:50;99716.60;;;
79488;BMP180;68949;53.176;18.088;2023-07-31T11:11:19;99694.60;;;
79488;BMP180;68949;53.176;18.088;2023-07-31T11:13:52;99687.60;;;
79488;BMP180;68949;53.176;18.088;2023-07-31T11:16:24;99677.40;;;
79488;BMP180;68949;53.176;18.088;2023-07-31T11:18:52;99680.00;;;
79488;BMP180;68949;53.176;18.088;2023-07-31T11:21:23;99672.60;;;
79488;BMP180;68949;53.176;18.088;2023-07-31T11:23:56;99677.20;;;
79488;BMP180;68949;53.176;18.088;2023-07-31T11:26:24;99666.40;;;
79488;BMP180;68949;53.176;18.088;2023-07-31T11:28:51;99674.20;;;
79488;BMP180;68949;53.176;18.088;2023-07-31T11:31:18;99674.40;;;
79488;BMP180;68949;53.176;18.088;2023-07-31T11:33:45;99675.20;;;
79488;BMP180;68949;53.176;18.088;2023-07-31T11:36:20;99677.60;;;
79488;BMP180;68949;53.176;18.088;2023-07-31T11:38:47;99675.40;;;
79488;BMP180;68949;53.176;18.088;2023-07-31T11:41:17;99661.40;;;
79488;BMP180;68949;53.176;18.088;2023-07-31T11:43:46;99674.00;;;
79488;BMP180;68949;53.176;18.088;2023-07-31T11:46:13;99705.60;;;
79488;BMP180;68949;53.176;18.088;2023-07-31T11:48:41;99725.40;;;
79488;BMP180;68949;53.176;18.088;2023-07-31T11:51:10;99742.20;;;
79488;BMP180;68949;53.176;18.088;2023-07-31T11:53:56;99751.20;;;
79488;BMP180;68949;53.176;18.088;2023-07-31T11:56:24;99743.80;;;
79488;BMP180;68949;53.176;18.088;2023-07-31T11:58:58;99741.60;;;
79488;BMP180;68949;53.176;18.088;2023-07-31T12:01:27;99742.40;;;
79488;BMP180;68949;53.176;18.088;2023-07-31T12:03:55;99734.40;;;
79488;BMP180;68949;53.176;18.088;2023-07-31T12:06:35;99727.20;;;
79488;BMP180;68949;53.176;18.088;2023-07-31T12:09:04;99726.00;;;
79488;BMP180;68949;53.176;18.088;2023-07-31T12:11:54;99726.40;;;
79488;BMP180;68949;53.176;18.088;2023-07-31T12:14:23;99713.80;;;
79488;BMP180;68949;53.176;18.088;2023-07-31T12:17:03;99697.80;;;
79488;BMP180;68949;53.176;18.088;2023-07-31T12:19:31;99690.40;;;
79488;BMP180;68949;53.176;18.088;2023-07-31T12:21:59;99670.20;;;
79488;BMP180;68949;53.176;18.088;2023-07-31T12:24:28;99674.60;;;
79488;BMP180;68949;53.176;18.088;2023-07-31T12:26:55;99676.80;;;
79488;BMP180;68949;53.176;18.088;2023-07-31T12:29:22;99669.60;;;
79488;BMP180;68949;53.176;18.088;2023-07-31T12:31:49;99675.80;;;
79488;BMP180;68949;53.176;18.088;2023-07-31T12:34:18;99668.20;;;
79488;BMP180;68949;53.176;18.088;2023-07-31T12:36:45;99656.80;;;
79488;BMP180;68949;53.176;18.088;2023-07-31T12:39:12;99660.20;;;
79488;BMP180;68949;53.176;18.088;2023-07-31T12:41:39;99645.00;;;
79488;BMP180;68949;53.176;18.088;2023-07-31T12:44:05;99647.40;;;
79488;BMP180;68949;53.176;18.088;2023-07-31T12:46:32;99647.20;;;
79488;BMP180;68949;53.176;18.088;2023-07-31T12:48:59;99646.00;;;
79488;BMP180;68949;53.176;18.088;2023-07-31T12:51:26;99638.40;;;
79488;BMP180;68949;53.176;18.088;2023-07-31T12:53:52;99651.00;;;
79488;BMP180;68949;53.176;18.088;2023-07-31T12:56:19;99656.00;;;
79488;BMP180;68949;53.176;18.088;2023-07-31T12:58:46;99663.00;;;
79488;BMP180;68949;53.176;18.088;2023-07-31T13:01:13;99665.20;;;
79488;BMP180;68949;53.176;18.088;2023-07-31T13:03:39;99668.40;;;
79488;BMP180;68949;53.176;18.088;2023-07-31T13:06:06;99671.60;;;
79488;BMP180;68949;53.176;18.088;2023-07-31T13:08:33;99670.40;;;
79488;BMP180;68949;53.176;18.088;2023-07-31T13:11:00;99672.40;;;
79488;BMP180;68949;53.176;18.088;2023-07-31T13:13:26;99669.80;;;
79488;BMP180;68949;53.176;18.088;2023-07-31T13:15:53;99675.00;;;
79488;BMP180;68949;53.176;18.088;2023-07-31T13:18:20;99686.80;;;
79488;BMP180;68949;53.176;18.088;2023-07-31T13:20:46;99682.60;;;
79488;BMP180;68949;53.176;18.088;2023-07-31T13:23:13;99675.40;;;
79488;BMP180;68949;53.176;18.088;2023-07-31T13:25:39;99674.60;;;
79488;BMP180;68949;53.176;18.088;2023-07-31T13:28:06;99675.00;;;
79488;BMP180;68949;53.176;18.088;2023-07-31T13:30:33;99665.20;;;
79488;BMP180;68949;53.176;18.088;2023-07-31T13:32:59;99673.40;;;
79488;BMP180;68949;53.176;18.088;2023-07-31T13:35:26;99668.00;;;
79488;BMP180;68949;53.176;18.088;2023-07-31T13:37:53;99665.80;;;
79488;BMP180;68949;53.176;18.088;2023-07-31T13:40:20;99671.40;;;
79488;BMP180;68949;53.176;18.088;2023-07-31T13:42:46;99671.80;;;
79488;BMP180;68949;53.176;18.088;2023-07-31T13:45:14;99669.80;;;
79488;BMP180;68949;53.176;18.088;2023-07-31T13:47:41;99674.00;;;
79488;BMP180;68949;53.176;18.088;2023-07-31T13:50:08;99673.00;;;
79488;BMP180;68949;53.176;18.088;2023-07-31T13:52:35;99675.60;;;
79488;BMP180;68949;53.176;18.088;2023-07-31T13:55:02;99677.20;;;
79488;BMP180;68949;53.176;18.088;2023-07-31T13:57:28;99677.00;;;
79488;BMP180;68949;53.176;18.088;2023-07-31T13:59:55;99670.20;;;
79488;BMP180;68949;53.176;18.088;2023-07-31T14:02:22;99671.00;;;
79488;BMP180;68949;53.176;18.088;2023-07-31T14:04:49;99667.00;;;
79488;BMP180;68949;53.176;18.088;2023-07-31T14:07:15;99663.40;;;
79488;BMP180;68949;53.176;18.088;2023-07-31T14:09:44;99665.40;;;
79488;BMP180;68949;53.176;18.088;2023-07-31T14:12:10;99665.20;;;
79488;BMP180;68949;53.176;18.088;2023-07-31T14:14:37;99665.00;;;
79488;BMP180;68949;53.176;18.088;2023-07-31T14:17:04;99673.00;;;
79488;BMP180;68949;53.176;18.088;2023-07-31T14:19:31;99669.20;;;
79488;BMP180;68949;53.176;18.088;2023-07-31T14:21:59;99666.00;;;
79488;BMP180;68949;53.176;18.088;2023-07-31T14:24:26;99659.60;;;
79488;BMP180;68949;53.176;18.088;2023-07-31T14:26:53;99656.40;;;
79488;BMP180;68949;53.176;18.088;2023-07-31T14:29:19;99668.80;;;
79488;BMP180;68949;53.176;18.088;2023-07-31T14:31:46;99668.00;;;
79488;BMP180;68949;53.176;18.088;2023-07-31T14:34:13;99671.80;;;
79488;BMP180;68949;53.176;18.088;2023-07-31T14:36:40;99672.80;;;
79488;BMP180;68949;53.176;18.088;2023-07-31T14:39:06;99675.00;;;
79488;BMP180;68949;53.176;18.088;2023-07-31T14:41:33;99680.20;;;
79488;BMP180;68949;53.176;18.088;2023-07-31T14:43:59;99670.00;;;
79488;BMP180;68949;53.176;18.088;2023-07-31T14:46:26;99667.20;;;
79488;BMP180;68949;53.176;18.088;2023-07-31T14:48:53;99668.60;;;
79488;BMP180;68949;53.176;18.088;2023-07-31T14:51:20;99668.40;;;
79488;BMP180;68949;53.176;18.088;2023-07-31T14:53:47;99667.20;;;
79488;BMP180;68949;53.176;18.088;2023-07-31T14:56:14;99661.20;;;
79488;BMP180;68949;53.176;18.088;2023-07-31T14:58:40;99657.60;;;
79488;BMP180;68949;53.176;18.088;2023-07-31T15:01:07;99657.20;;;
79488;BMP180;68949;53.176;18.088;2023-07-31T15:03:33;99647.80;;;
79488;BMP180;68949;53.176;18.088;2023-07-31T15:06:00;99651.20;;;
79488;BMP180;68949;53.176;18.088;2023-07-31T15:08:27;99648.00;;;